sensor_id;sensor_type;location;lat;lon;timestamp;P1;durP1;ratioP1;P2;durP2;ratioP2
7575;SDS011;3829;50.798;4.358;2023-06-14T00:01:13;11.90;;;4.93;;
7575;SDS011;3829;50.798;4.358;2023-06-14T00:03:39;8.37;;;4.70;;
7575;SDS011;3829;50.798;4.358;2023-06-14T00:06:05;6.63;;;4.43;;
7575;SDS011;3829;50.798;4.358;2023-06-14T00:08:30;7.63;;;4.47;;
7575;SDS011;3829;50.798;4.358;2023-06-14T00:10:56;10.00;;;4.63;;
7575;SDS011;3829;50.798;4.358;2023-06-14T00:13:21;7.30;;;4.67;;
7575;SDS011;3829;50.798;4.358;2023-06-14T00:15:47;6.47;;;4.50;;
7575;SDS011;3829;50.798;4.358;2023-06-14T00:18:13;5.23;;;4.33;;
7575;SDS011;3829;50.798;4.358;2023-06-14T00:20:38;6.53;;;4.90;;
7575;SDS011;3829;50.798;4.358;2023-06-14T00:23:04;5.20;;;4.60;;
7575;SDS011;3829;50.798;4.358;2023-06-14T00:25:30;12.07;;;4.97;;
7575;SDS011;3829;50.798;4.358;2023-06-14T00:27:56;6.77;;;4.77;;
7575;SDS011;3829;50.798;4.358;2023-06-14T00:30:22;5.20;;;4.53;;
7575;SDS011;3829;50.798;4.358;2023-06-14T00:32:48;7.47;;;4.83;;
7575;SDS011;3829;50.798;4.358;2023-06-14T00:35:14;9.87;;;4.90;;
7575;SDS011;3829;50.798;4.358;2023-06-14T00:37:40;8.17;;;5.07;;
7575;SDS011;3829;50.798;4.358;2023-06-14T00:40:06;7.07;;;5.27;;
7575;SDS011;3829;50.798;4.358;2023-06-14T00:42:32;11.17;;;4.83;;
7575;SDS011;3829;50.798;4.358;2023-06-14T00:44:58;5.20;;;4.60;;
7575;SDS011;3829;50.798;4.358;2023-06-14T00:47:24;6.50;;;4.53;;
7575;SDS011;3829;50.798;4.358;2023-06-14T00:49:50;6.63;;;4.97;;
7575;SDS011;3829;50.798;4.358;2023-06-14T00:52:17;6.93;;;4.67;;
7575;SDS011;3829;50.798;4.358;2023-06-14T00:54:43;7.17;;;4.57;;
7575;SDS011;3829;50.798;4.358;2023-06-14T00:57:10;8.17;;;4.77;;
7575;SDS011;3829;50.798;4.358;2023-06-14T00:59:38;8.30;;;4.60;;
7575;SDS011;3829;50.798;4.358;2023-06-14T01:02:08;6.27;;;5.00;;
7575;SDS011;3829;50.798;4.358;2023-06-14T01:04:34;7.13;;;5.13;;
7575;SDS011;3829;50.798;4.358;2023-06-14T01:07:02;9.77;;;5.60;;
7575;SDS011;3829;50.798;4.358;2023-06-14T01:12:27;7.70;;;4.80;;
7575;SDS011;3829;50.798;4.358;2023-06-14T01:15:00;6.50;;;4.70;;
7575;SDS011;3829;50.798;4.358;2023-06-14T01:17:27;6.13;;;4.43;;
7575;SDS011;3829;50.798;4.358;2023-06-14T01:19:56;8.50;;;5.07;;
7575;SDS011;3829;50.798;4.358;2023-06-14T01:22:26;7.23;;;5.20;;
7575;SDS011;3829;50.798;4.358;2023-06-14T01:24:52;12.33;;;5.80;;
7575;SDS011;3829;50.798;4.358;2023-06-14T01:27:20;6.47;;;4.47;;
7575;SDS011;3829;50.798;4.358;2023-06-14T01:29:48;6.90;;;4.43;;
7575;SDS011;3829;50.798;4.358;2023-06-14T01:32:16;7.63;;;5.30;;
7575;SDS011;3829;50.798;4.358;2023-06-14T01:34:43;8.60;;;4.60;;
7575;SDS011;3829;50.798;4.358;2023-06-14T01:37:09;9.57;;;5.17;;
7575;SDS011;3829;50.798;4.358;2023-06-14T01:39:36;5.27;;;4.37;;
7575;SDS011;3829;50.798;4.358;2023-06-14T01:42:02;6.47;;;4.67;;
7575;SDS011;3829;50.798;4.358;2023-06-14T01:44:30;7.97;;;4.93;;
7575;SDS011;3829;50.798;4.358;2023-06-14T01:46:56;8.13;;;5.40;;
7575;SDS011;3829;50.798;4.358;2023-06-14T01:49:22;6.33;;;5.20;;
7575;SDS011;3829;50.798;4.358;2023-06-14T01:51:48;10.40;;;4.73;;
7575;SDS011;3829;50.798;4.358;2023-06-14T01:54:13;6.37;;;4.87;;
7575;SDS011;3829;50.798;4.358;2023-06-14T01:56:39;9.90;;;5.10;;
7575;SDS011;3829;50.798;4.358;2023-06-14T01:59:05;8.50;;;5.70;;
7575;SDS011;3829;50.798;4.358;2023-06-14T02:01:30;7.77;;;5.37;;
7575;SDS011;3829;50.798;4.358;2023-06-14T02:03:56;7.47;;;5.60;;
7575;SDS011;3829;50.798;4.358;2023-06-14T02:06:21;11.93;;;5.73;;
7575;SDS011;3829;50.798;4.358;2023-06-14T02:08:47;12.90;;;5.53;;
7575;SDS011;3829;50.798;4.358;2023-06-14T02:11:12;7.63;;;5.50;;
7575;SDS011;3829;50.798;4.358;2023-06-14T02:13:38;8.77;;;5.90;;
7575;SDS011;3829;50.798;4.358;2023-06-14T02:16:03;9.13;;;5.90;;
7575;SDS011;3829;50.798;4.358;2023-06-14T02:18:30;8.77;;;5.57;;
7575;SDS011;3829;50.798;4.358;2023-06-14T02:20:56;8.23;;;5.63;;
7575;SDS011;3829;50.798;4.358;2023-06-14T02:23:21;6.33;;;5.43;;
7575;SDS011;3829;50.798;4.358;2023-06-14T02:25:47;10.00;;;5.50;;
7575;SDS011;3829;50.798;4.358;2023-06-14T02:28:12;10.70;;;5.90;;
7575;SDS011;3829;50.798;4.358;2023-06-14T02:30:38;7.87;;;5.23;;
7575;SDS011;3829;50.798;4.358;2023-06-14T02:33:04;7.33;;;5.50;;
7575;SDS011;3829;50.798;4.358;2023-06-14T02:35:30;8.63;;;5.60;;
7575;SDS011;3829;50.798;4.358;2023-06-14T02:37:55;6.67;;;5.40;;
7575;SDS011;3829;50.798;4.358;2023-06-14T02:40:21;6.90;;;5.30;;
7575;SDS011;3829;50.798;4.358;2023-06-14T02:42:47;12.83;;;5.90;;
7575;SDS011;3829;50.798;4.358;2023-06-14T02:45:13;13.83;;;6.23;;
7575;SDS011;3829;50.798;4.358;2023-06-14T02:47:38;10.23;;;6.20;;
7575;SDS011;3829;50.798;4.358;2023-06-14T02:50:05;11.97;;;5.77;;
7575;SDS011;3829;50.798;4.358;2023-06-14T02:52:31;8.93;;;6.00;;
7575;SDS011;3829;50.798;4.358;2023-06-14T02:54:58;8.70;;;5.97;;
7575;SDS011;3829;50.798;4.358;2023-06-14T02:57:24;9.37;;;5.97;;
7575;SDS011;3829;50.798;4.358;2023-06-14T02:59:49;7.37;;;6.03;;
7575;SDS011;3829;50.798;4.358;2023-06-14T03:02:15;8.70;;;6.50;;
7575;SDS011;3829;50.798;4.358;2023-06-14T03:04:40;8.20;;;6.10;;
7575;SDS011;3829;50.798;4.358;2023-06-14T03:07:09;13.20;;;6.30;;
7575;SDS011;3829;50.798;4.358;2023-06-14T03:09:36;12.33;;;6.30;;
7575;SDS011;3829;50.798;4.358;2023-06-14T03:12:02;7.70;;;6.07;;
7575;SDS011;3829;50.798;4.358;2023-06-14T03:14:29;8.37;;;6.40;;
7575;SDS011;3829;50.798;4.358;2023-06-14T03:16:55;10.87;;;6.63;;
7575;SDS011;3829;50.798;4.358;2023-06-14T03:19:22;8.80;;;6.00;;
7575;SDS011;3829;50.798;4.358;2023-06-14T03:21:48;8.70;;;6.10;;
7575;SDS011;3829;50.798;4.358;2023-06-14T03:24:14;9.30;;;6.40;;
7575;SDS011;3829;50.798;4.358;2023-06-14T03:26:41;9.73;;;6.37;;
7575;SDS011;3829;50.798;4.358;2023-06-14T03:29:07;9.23;;;5.73;;
7575;SDS011;3829;50.798;4.358;2023-06-14T03:31:34;8.57;;;6.43;;
7575;SDS011;3829;50.798;4.358;2023-06-14T03:34:00;9.70;;;6.30;;
7575;SDS011;3829;50.798;4.358;2023-06-14T03:36:26;12.17;;;6.80;;
7575;SDS011;3829;50.798;4.358;2023-06-14T03:38:52;9.27;;;6.83;;
7575;SDS011;3829;50.798;4.358;2023-06-14T03:41:19;9.87;;;6.40;;
7575;SDS011;3829;50.798;4.358;2023-06-14T03:43:44;14.30;;;6.93;;
7575;SDS011;3829;50.798;4.358;2023-06-14T03:46:10;9.47;;;5.77;;
7575;SDS011;3829;50.798;4.358;2023-06-14T03:48:35;9.50;;;6.57;;
7575;SDS011;3829;50.798;4.358;2023-06-14T03:51:01;8.53;;;6.80;;
7575;SDS011;3829;50.798;4.358;2023-06-14T03:53:27;9.73;;;6.07;;
7575;SDS011;3829;50.798;4.358;2023-06-14T03:55:54;9.13;;;6.63;;
7575;SDS011;3829;50.798;4.358;2023-06-14T03:58:20;8.20;;;6.37;;
7575;SDS011;3829;50.798;4.358;2023-06-14T04:00:45;10.30;;;6.70;;
7575;SDS011;3829;50.798;4.358;2023-06-14T04:03:11;10.37;;;6.67;;
7575;SDS011;3829;50.798;4.358;2023-06-14T04:05:38;8.17;;;6.60;;
7575;SDS011;3829;50.798;4.358;2023-06-14T04:08:07;9.20;;;6.30;;
7575;SDS011;3829;50.798;4.358;2023-06-14T04:10:34;12.57;;;6.60;;
7575;SDS011;3829;50.798;4.358;2023-06-14T04:12:59;10.73;;;6.73;;
7575;SDS011;3829;50.798;4.358;2023-06-14T04:15:25;9.13;;;6.50;;
7575;SDS011;3829;50.798;4.358;2023-06-14T04:17:53;8.73;;;6.70;;
7575;SDS011;3829;50.798;4.358;2023-06-14T04:20:22;10.17;;;6.73;;
7575;SDS011;3829;50.798;4.358;2023-06-14T04:22:49;9.13;;;6.50;;
7575;SDS011;3829;50.798;4.358;2023-06-14T04:25:15;10.23;;;6.60;;
7575;SDS011;3829;50.798;4.358;2023-06-14T04:27:41;10.97;;;6.33;;
7575;SDS011;3829;50.798;4.358;2023-06-14T04:30:07;11.57;;;6.80;;
7575;SDS011;3829;50.798;4.358;2023-06-14T04:32:33;12.43;;;6.73;;
7575;SDS011;3829;50.798;4.358;2023-06-14T04:35:03;11.17;;;6.77;;
7575;SDS011;3829;50.798;4.358;2023-06-14T04:37:30;15.87;;;6.63;;
7575;SDS011;3829;50.798;4.358;2023-06-14T04:39:56;11.53;;;6.80;;
7575;SDS011;3829;50.798;4.358;2023-06-14T04:42:22;11.23;;;6.57;;
7575;SDS011;3829;50.798;4.358;2023-06-14T04:44:50;9.37;;;6.20;;
7575;SDS011;3829;50.798;4.358;2023-06-14T04:47:17;9.37;;;6.37;;
7575;SDS011;3829;50.798;4.358;2023-06-14T04:49:43;10.83;;;6.83;;
7575;SDS011;3829;50.798;4.358;2023-06-14T04:52:09;13.37;;;6.73;;
7575;SDS011;3829;50.798;4.358;2023-06-14T04:54:36;10.93;;;6.67;;
7575;SDS011;3829;50.798;4.358;2023-06-14T04:57:03;7.27;;;6.00;;
7575;SDS011;3829;50.798;4.358;2023-06-14T04:59:30;13.93;;;6.83;;
7575;SDS011;3829;50.798;4.358;2023-06-14T05:01:58;8.17;;;6.77;;
7575;SDS011;3829;50.798;4.358;2023-06-14T05:04:25;8.67;;;6.17;;
7575;SDS011;3829;50.798;4.358;2023-06-14T05:06:52;13.87;;;6.73;;
7575;SDS011;3829;50.798;4.358;2023-06-14T05:09:19;11.00;;;6.63;;
7575;SDS011;3829;50.798;4.358;2023-06-14T05:11:46;9.00;;;6.17;;
7575;SDS011;3829;50.798;4.358;2023-06-14T05:14:12;10.20;;;7.30;;
7575;SDS011;3829;50.798;4.358;2023-06-14T05:16:39;10.50;;;6.47;;
7575;SDS011;3829;50.798;4.358;2023-06-14T05:19:05;11.03;;;7.10;;
7575;SDS011;3829;50.798;4.358;2023-06-14T05:21:31;10.13;;;7.30;;
7575;SDS011;3829;50.798;4.358;2023-06-14T05:23:58;12.23;;;6.93;;
7575;SDS011;3829;50.798;4.358;2023-06-14T05:26:24;9.53;;;6.80;;
7575;SDS011;3829;50.798;4.358;2023-06-14T05:28:53;14.87;;;7.40;;
7575;SDS011;3829;50.798;4.358;2023-06-14T05:31:21;16.20;;;7.37;;
7575;SDS011;3829;50.798;4.358;2023-06-14T05:33:48;14.07;;;7.07;;
7575;SDS011;3829;50.798;4.358;2023-06-14T05:36:13;11.30;;;7.17;;
7575;SDS011;3829;50.798;4.358;2023-06-14T05:38:39;17.63;;;8.93;;
7575;SDS011;3829;50.798;4.358;2023-06-14T05:41:05;11.10;;;6.70;;
7575;SDS011;3829;50.798;4.358;2023-06-14T05:43:30;10.17;;;6.23;;
7575;SDS011;3829;50.798;4.358;2023-06-14T05:45:56;14.80;;;6.27;;
7575;SDS011;3829;50.798;4.358;2023-06-14T05:48:22;10.77;;;6.70;;
7575;SDS011;3829;50.798;4.358;2023-06-14T05:50:47;14.13;;;6.90;;
7575;SDS011;3829;50.798;4.358;2023-06-14T05:53:13;10.10;;;6.70;;
7575;SDS011;3829;50.798;4.358;2023-06-14T05:55:39;14.73;;;6.30;;
7575;SDS011;3829;50.798;4.358;2023-06-14T05:58:04;10.30;;;6.10;;
7575;SDS011;3829;50.798;4.358;2023-06-14T06:00:30;11.83;;;6.40;;
7575;SDS011;3829;50.798;4.358;2023-06-14T06:02:55;8.77;;;6.60;;
7575;SDS011;3829;50.798;4.358;2023-06-14T06:05:22;11.57;;;6.63;;
7575;SDS011;3829;50.798;4.358;2023-06-14T06:07:48;9.03;;;6.20;;
7575;SDS011;3829;50.798;4.358;2023-06-14T06:10:14;8.47;;;6.80;;
7575;SDS011;3829;50.798;4.358;2023-06-14T06:12:41;7.23;;;6.40;;
7575;SDS011;3829;50.798;4.358;2023-06-14T06:15:07;13.30;;;6.57;;
7575;SDS011;3829;50.798;4.358;2023-06-14T06:17:33;10.67;;;6.57;;
7575;SDS011;3829;50.798;4.358;2023-06-14T06:19:59;8.97;;;6.40;;
7575;SDS011;3829;50.798;4.358;2023-06-14T06:22:25;12.23;;;5.77;;
7575;SDS011;3829;50.798;4.358;2023-06-14T06:24:50;10.93;;;6.43;;
7575;SDS011;3829;50.798;4.358;2023-06-14T06:27:16;9.50;;;5.70;;
7575;SDS011;3829;50.798;4.358;2023-06-14T06:29:43;12.73;;;6.07;;
7575;SDS011;3829;50.798;4.358;2023-06-14T06:32:09;10.30;;;6.40;;
7575;SDS011;3829;50.798;4.358;2023-06-14T06:34:35;8.83;;;6.00;;
7575;SDS011;3829;50.798;4.358;2023-06-14T06:37:00;15.70;;;7.57;;
7575;SDS011;3829;50.798;4.358;2023-06-14T06:39:26;11.63;;;6.07;;
7575;SDS011;3829;50.798;4.358;2023-06-14T06:41:52;13.47;;;7.00;;
7575;SDS011;3829;50.798;4.358;2023-06-14T06:44:17;14.20;;;6.50;;
7575;SDS011;3829;50.798;4.358;2023-06-14T06:46:43;9.63;;;6.17;;
7575;SDS011;3829;50.798;4.358;2023-06-14T06:49:09;7.83;;;5.73;;
7575;SDS011;3829;50.798;4.358;2023-06-14T06:51:36;9.67;;;5.80;;
7575;SDS011;3829;50.798;4.358;2023-06-14T06:54:02;12.13;;;6.57;;
7575;SDS011;3829;50.798;4.358;2023-06-14T06:56:28;12.10;;;5.83;;
7575;SDS011;3829;50.798;4.358;2023-06-14T06:58:54;7.60;;;6.00;;
7575;SDS011;3829;50.798;4.358;2023-06-14T07:01:19;8.33;;;5.83;;
7575;SDS011;3829;50.798;4.358;2023-06-14T07:03:45;13.50;;;6.60;;
7575;SDS011;3829;50.798;4.358;2023-06-14T07:06:11;9.77;;;5.20;;
7575;SDS011;3829;50.798;4.358;2023-06-14T07:08:37;10.23;;;5.10;;
7575;SDS011;3829;50.798;4.358;2023-06-14T07:11:04;6.43;;;5.30;;
7575;SDS011;3829;50.798;4.358;2023-06-14T07:13:32;13.27;;;5.87;;
7575;SDS011;3829;50.798;4.358;2023-06-14T07:15:58;9.57;;;5.77;;
7575;SDS011;3829;50.798;4.358;2023-06-14T07:18:25;9.37;;;5.70;;
7575;SDS011;3829;50.798;4.358;2023-06-14T07:20:51;7.27;;;4.93;;
7575;SDS011;3829;50.798;4.358;2023-06-14T07:23:18;7.07;;;5.17;;
7575;SDS011;3829;50.798;4.358;2023-06-14T07:25:44;10.23;;;5.47;;
7575;SDS011;3829;50.798;4.358;2023-06-14T07:28:09;11.60;;;5.37;;
7575;SDS011;3829;50.798;4.358;2023-06-14T07:30:35;8.97;;;5.33;;
7575;SDS011;3829;50.798;4.358;2023-06-14T07:33:00;9.07;;;5.00;;
7575;SDS011;3829;50.798;4.358;2023-06-14T07:35:26;6.93;;;4.97;;
7575;SDS011;3829;50.798;4.358;2023-06-14T07:37:52;7.70;;;5.47;;
7575;SDS011;3829;50.798;4.358;2023-06-14T07:40:17;12.70;;;6.13;;
7575;SDS011;3829;50.798;4.358;2023-06-14T07:42:43;9.67;;;5.57;;
7575;SDS011;3829;50.798;4.358;2023-06-14T07:45:09;9.67;;;5.73;;
7575;SDS011;3829;50.798;4.358;2023-06-14T07:47:35;10.67;;;5.03;;
7575;SDS011;3829;50.798;4.358;2023-06-14T07:50:00;8.00;;;4.87;;
7575;SDS011;3829;50.798;4.358;2023-06-14T07:52:26;7.27;;;5.10;;
7575;SDS011;3829;50.798;4.358;2023-06-14T07:54:51;7.70;;;4.70;;
7575;SDS011;3829;50.798;4.358;2023-06-14T07:57:17;8.47;;;5.13;;
7575;SDS011;3829;50.798;4.358;2023-06-14T07:59:45;7.80;;;4.77;;
7575;SDS011;3829;50.798;4.358;2023-06-14T08:02:11;9.13;;;5.40;;
7575;SDS011;3829;50.798;4.358;2023-06-14T08:04:36;7.53;;;4.90;;
7575;SDS011;3829;50.798;4.358;2023-06-14T08:07:03;10.67;;;4.93;;
7575;SDS011;3829;50.798;4.358;2023-06-14T08:09:28;7.00;;;4.87;;
7575;SDS011;3829;50.798;4.358;2023-06-14T08:11:54;8.57;;;5.00;;
7575;SDS011;3829;50.798;4.358;2023-06-14T08:14:20;10.70;;;4.93;;
7575;SDS011;3829;50.798;4.358;2023-06-14T08:16:46;8.67;;;4.80;;
7575;SDS011;3829;50.798;4.358;2023-06-14T08:19:11;6.53;;;4.77;;
7575;SDS011;3829;50.798;4.358;2023-06-14T08:21:37;6.10;;;4.80;;
7575;SDS011;3829;50.798;4.358;2023-06-14T08:24:03;7.13;;;4.90;;
7575;SDS011;3829;50.798;4.358;2023-06-14T08:26:29;17.17;;;5.17;;
7575;SDS011;3829;50.798;4.358;2023-06-14T08:28:55;8.00;;;4.97;;
7575;SDS011;3829;50.798;4.358;2023-06-14T08:31:21;11.20;;;5.83;;
7575;SDS011;3829;50.798;4.358;2023-06-14T08:33:47;5.33;;;4.77;;
7575;SDS011;3829;50.798;4.358;2023-06-14T08:36:12;12.10;;;4.90;;
7575;SDS011;3829;50.798;4.358;2023-06-14T08:38:39;7.37;;;4.30;;
7575;SDS011;3829;50.798;4.358;2023-06-14T08:41:05;9.10;;;4.50;;
7575;SDS011;3829;50.798;4.358;2023-06-14T08:43:31;10.03;;;4.57;;
7575;SDS011;3829;50.798;4.358;2023-06-14T08:45:58;8.97;;;4.90;;
7575;SDS011;3829;50.798;4.358;2023-06-14T08:48:28;6.80;;;5.53;;
7575;SDS011;3829;50.798;4.358;2023-06-14T08:50:55;5.13;;;4.43;;
7575;SDS011;3829;50.798;4.358;2023-06-14T08:53:26;9.17;;;5.53;;
7575;SDS011;3829;50.798;4.358;2023-06-14T08:55:54;9.03;;;5.17;;
7575;SDS011;3829;50.798;4.358;2023-06-14T08:58:20;9.50;;;5.40;;
7575;SDS011;3829;50.798;4.358;2023-06-14T09:00:49;11.17;;;5.17;;
7575;SDS011;3829;50.798;4.358;2023-06-14T09:03:17;9.57;;;5.43;;
7575;SDS011;3829;50.798;4.358;2023-06-14T09:05:45;8.30;;;5.10;;
7575;SDS011;3829;50.798;4.358;2023-06-14T09:08:12;9.57;;;5.77;;
7575;SDS011;3829;50.798;4.358;2023-06-14T09:10:37;7.80;;;5.23;;
7575;SDS011;3829;50.798;4.358;2023-06-14T09:13:05;8.97;;;4.80;;
7575;SDS011;3829;50.798;4.358;2023-06-14T09:15:31;8.07;;;5.37;;
7575;SDS011;3829;50.798;4.358;2023-06-14T09:17:57;14.40;;;9.00;;
7575;SDS011;3829;50.798;4.358;2023-06-14T09:20:23;8.03;;;5.00;;
7575;SDS011;3829;50.798;4.358;2023-06-14T09:22:49;9.73;;;5.57;;
7575;SDS011;3829;50.798;4.358;2023-06-14T09:25:15;11.40;;;5.07;;
7575;SDS011;3829;50.798;4.358;2023-06-14T09:27:41;6.80;;;5.10;;
7575;SDS011;3829;50.798;4.358;2023-06-14T09:30:08;6.40;;;4.80;;
7575;SDS011;3829;50.798;4.358;2023-06-14T09:32:36;7.33;;;5.20;;
7575;SDS011;3829;50.798;4.358;2023-06-14T09:35:04;6.50;;;5.30;;
7575;SDS011;3829;50.798;4.358;2023-06-14T09:37:31;8.10;;;5.40;;
7575;SDS011;3829;50.798;4.358;2023-06-14T09:39:57;10.03;;;4.70;;
7575;SDS011;3829;50.798;4.358;2023-06-14T09:42:23;7.10;;;5.03;;
7575;SDS011;3829;50.798;4.358;2023-06-14T09:44:51;10.83;;;5.10;;
7575;SDS011;3829;50.798;4.358;2023-06-14T09:47:18;11.37;;;5.00;;
7575;SDS011;3829;50.798;4.358;2023-06-14T09:49:44;16.67;;;5.40;;
7575;SDS011;3829;50.798;4.358;2023-06-14T09:52:17;5.37;;;4.50;;
7575;SDS011;3829;50.798;4.358;2023-06-14T09:54:44;11.93;;;5.03;;
7575;SDS011;3829;50.798;4.358;2023-06-14T09:57:13;8.53;;;4.43;;
7575;SDS011;3829;50.798;4.358;2023-06-14T09:59:42;8.70;;;4.97;;
7575;SDS011;3829;50.798;4.358;2023-06-14T10:02:11;6.53;;;4.33;;
7575;SDS011;3829;50.798;4.358;2023-06-14T10:04:50;7.83;;;5.03;;
7575;SDS011;3829;50.798;4.358;2023-06-14T10:07:22;6.97;;;5.27;;
7575;SDS011;3829;50.798;4.358;2023-06-14T10:09:52;7.93;;;5.10;;
7575;SDS011;3829;50.798;4.358;2023-06-14T10:12:18;7.87;;;4.80;;
7575;SDS011;3829;50.798;4.358;2023-06-14T10:14:48;8.33;;;5.10;;
7575;SDS011;3829;50.798;4.358;2023-06-14T10:17:27;6.10;;;4.80;;
7575;SDS011;3829;50.798;4.358;2023-06-14T10:20:06;9.97;;;5.27;;
7575;SDS011;3829;50.798;4.358;2023-06-14T10:22:47;9.47;;;5.23;;
7575;SDS011;3829;50.798;4.358;2023-06-14T10:28:14;7.80;;;5.03;;
7575;SDS011;3829;50.798;4.358;2023-06-14T10:33:29;7.87;;;4.97;;
7575;SDS011;3829;50.798;4.358;2023-06-14T10:36:24;6.23;;;4.50;;
7575;SDS011;3829;50.798;4.358;2023-06-14T10:38:58;6.90;;;4.83;;
7575;SDS011;3829;50.798;4.358;2023-06-14T10:41:35;8.57;;;4.53;;
7575;SDS011;3829;50.798;4.358;2023-06-14T10:44:10;8.93;;;5.83;;
7575;SDS011;3829;50.798;4.358;2023-06-14T10:46:58;4.90;;;4.03;;
7575;SDS011;3829;50.798;4.358;2023-06-14T10:52:05;5.37;;;3.83;;
7575;SDS011;3829;50.798;4.358;2023-06-14T10:54:37;6.73;;;4.77;;
7575;SDS011;3829;50.798;4.358;2023-06-14T10:57:03;8.33;;;4.40;;
7575;SDS011;3829;50.798;4.358;2023-06-14T10:59:32;10.33;;;4.90;;
7575;SDS011;3829;50.798;4.358;2023-06-14T11:04:46;10.00;;;4.03;;
7575;SDS011;3829;50.798;4.358;2023-06-14T11:12:45;4.20;;;3.80;;
7575;SDS011;3829;50.798;4.358;2023-06-14T11:15:13;6.87;;;4.47;;
7575;SDS011;3829;50.798;4.358;2023-06-14T11:17:39;4.83;;;4.03;;
7575;SDS011;3829;50.798;4.358;2023-06-14T11:20:08;8.77;;;4.10;;
7575;SDS011;3829;50.798;4.358;2023-06-14T11:22:42;6.30;;;3.37;;
7575;SDS011;3829;50.798;4.358;2023-06-14T11:25:09;7.70;;;4.10;;
7575;SDS011;3829;50.798;4.358;2023-06-14T11:27:35;12.20;;;4.40;;
7575;SDS011;3829;50.798;4.358;2023-06-14T11:30:01;7.23;;;4.10;;
7575;SDS011;3829;50.798;4.358;2023-06-14T11:32:27;7.07;;;4.00;;
7575;SDS011;3829;50.798;4.358;2023-06-14T11:34:53;7.73;;;3.97;;
7575;SDS011;3829;50.798;4.358;2023-06-14T11:37:18;5.07;;;3.90;;
7575;SDS011;3829;50.798;4.358;2023-06-14T11:39:44;10.97;;;4.60;;
7575;SDS011;3829;50.798;4.358;2023-06-14T11:42:14;7.00;;;4.07;;
7575;SDS011;3829;50.798;4.358;2023-06-14T11:44:41;9.20;;;3.57;;
7575;SDS011;3829;50.798;4.358;2023-06-14T11:47:06;10.50;;;4.40;;
7575;SDS011;3829;50.798;4.358;2023-06-14T11:49:35;7.93;;;3.97;;
7575;SDS011;3829;50.798;4.358;2023-06-14T11:52:01;6.97;;;3.90;;
7575;SDS011;3829;50.798;4.358;2023-06-14T11:54:27;6.60;;;4.07;;
7575;SDS011;3829;50.798;4.358;2023-06-14T11:56:53;7.37;;;4.10;;
7575;SDS011;3829;50.798;4.358;2023-06-14T11:59:19;6.27;;;4.07;;
7575;SDS011;3829;50.798;4.358;2023-06-14T12:01:47;7.60;;;4.40;;
7575;SDS011;3829;50.798;4.358;2023-06-14T12:04:13;6.70;;;3.53;;
7575;SDS011;3829;50.798;4.358;2023-06-14T12:06:38;7.23;;;4.23;;
7575;SDS011;3829;50.798;4.358;2023-06-14T12:09:05;5.43;;;3.90;;
7575;SDS011;3829;50.798;4.358;2023-06-14T12:11:35;8.63;;;4.83;;
7575;SDS011;3829;50.798;4.358;2023-06-14T12:14:03;4.93;;;4.13;;
7575;SDS011;3829;50.798;4.358;2023-06-14T12:16:31;6.70;;;4.20;;
7575;SDS011;3829;50.798;4.358;2023-06-14T12:19:00;8.10;;;4.10;;
7575;SDS011;3829;50.798;4.358;2023-06-14T12:21:32;6.93;;;3.63;;
7575;SDS011;3829;50.798;4.358;2023-06-14T12:24:03;5.03;;;3.70;;
7575;SDS011;3829;50.798;4.358;2023-06-14T12:26:29;6.00;;;3.90;;
7575;SDS011;3829;50.798;4.358;2023-06-14T12:28:54;5.60;;;4.07;;
7575;SDS011;3829;50.798;4.358;2023-06-14T12:31:21;5.60;;;3.70;;
7575;SDS011;3829;50.798;4.358;2023-06-14T12:33:47;9.43;;;3.67;;
7575;SDS011;3829;50.798;4.358;2023-06-14T12:36:14;6.13;;;3.70;;
7575;SDS011;3829;50.798;4.358;2023-06-14T12:38:40;6.77;;;3.90;;
7575;SDS011;3829;50.798;4.358;2023-06-14T12:41:06;6.00;;;3.63;;
7575;SDS011;3829;50.798;4.358;2023-06-14T12:43:32;4.60;;;3.80;;
7575;SDS011;3829;50.798;4.358;2023-06-14T12:45:59;8.27;;;3.50;;
7575;SDS011;3829;50.798;4.358;2023-06-14T12:48:25;4.67;;;3.90;;
7575;SDS011;3829;50.798;4.358;2023-06-14T12:50:52;6.00;;;3.60;;
7575;SDS011;3829;50.798;4.358;2023-06-14T12:53:18;6.40;;;3.67;;
7575;SDS011;3829;50.798;4.358;2023-06-14T12:55:44;7.97;;;3.30;;
7575;SDS011;3829;50.798;4.358;2023-06-14T12:58:09;6.73;;;3.50;;
7575;SDS011;3829;50.798;4.358;2023-06-14T13:00:37;3.90;;;3.30;;
7575;SDS011;3829;50.798;4.358;2023-06-14T13:03:03;9.40;;;3.90;;
7575;SDS011;3829;50.798;4.358;2023-06-14T13:05:28;4.10;;;3.27;;
7575;SDS011;3829;50.798;4.358;2023-06-14T13:07:56;3.80;;;3.37;;
7575;SDS011;3829;50.798;4.358;2023-06-14T13:10:22;6.87;;;3.53;;
7575;SDS011;3829;50.798;4.358;2023-06-14T13:12:47;6.80;;;3.40;;
7575;SDS011;3829;50.798;4.358;2023-06-14T13:15:13;8.30;;;3.23;;
7575;SDS011;3829;50.798;4.358;2023-06-14T13:17:38;7.10;;;3.10;;
7575;SDS011;3829;50.798;4.358;2023-06-14T13:20:05;3.67;;;3.10;;
7575;SDS011;3829;50.798;4.358;2023-06-14T13:22:32;12.17;;;3.47;;
7575;SDS011;3829;50.798;4.358;2023-06-14T13:24:57;5.20;;;3.47;;
7575;SDS011;3829;50.798;4.358;2023-06-14T13:27:23;5.47;;;3.33;;
7575;SDS011;3829;50.798;4.358;2023-06-14T13:29:49;7.67;;;3.67;;
7575;SDS011;3829;50.798;4.358;2023-06-14T13:32:15;9.77;;;3.30;;
7575;SDS011;3829;50.798;4.358;2023-06-14T13:34:40;3.97;;;2.97;;
7575;SDS011;3829;50.798;4.358;2023-06-14T13:37:06;5.60;;;3.03;;
7575;SDS011;3829;50.798;4.358;2023-06-14T13:39:32;5.60;;;2.93;;
7575;SDS011;3829;50.798;4.358;2023-06-14T13:41:57;9.77;;;3.20;;
7575;SDS011;3829;50.798;4.358;2023-06-14T13:44:23;7.77;;;3.27;;
7575;SDS011;3829;50.798;4.358;2023-06-14T13:46:49;3.63;;;3.23;;
7575;SDS011;3829;50.798;4.358;2023-06-14T13:49:15;4.77;;;2.73;;
7575;SDS011;3829;50.798;4.358;2023-06-14T13:51:41;3.10;;;2.60;;
7575;SDS011;3829;50.798;4.358;2023-06-14T13:54:07;5.50;;;2.80;;
7575;SDS011;3829;50.798;4.358;2023-06-14T13:56:33;3.90;;;2.60;;
7575;SDS011;3829;50.798;4.358;2023-06-14T13:58:58;6.37;;;2.57;;
7575;SDS011;3829;50.798;4.358;2023-06-14T14:01:25;4.67;;;2.30;;
7575;SDS011;3829;50.798;4.358;2023-06-14T14:03:51;5.67;;;2.97;;
7575;SDS011;3829;50.798;4.358;2023-06-14T14:06:17;6.80;;;2.70;;
7575;SDS011;3829;50.798;4.358;2023-06-14T14:08:42;4.50;;;3.10;;
7575;SDS011;3829;50.798;4.358;2023-06-14T14:11:09;4.53;;;2.30;;
7575;SDS011;3829;50.798;4.358;2023-06-14T14:13:35;6.67;;;2.63;;
7575;SDS011;3829;50.798;4.358;2023-06-14T14:16:01;3.73;;;2.13;;
7575;SDS011;3829;50.798;4.358;2023-06-14T14:18:28;4.23;;;2.20;;
7575;SDS011;3829;50.798;4.358;2023-06-14T14:20:54;3.23;;;2.17;;
7575;SDS011;3829;50.798;4.358;2023-06-14T14:23:19;3.07;;;2.57;;
7575;SDS011;3829;50.798;4.358;2023-06-14T14:25:46;4.20;;;2.00;;
7575;SDS011;3829;50.798;4.358;2023-06-14T14:28:12;5.20;;;2.30;;
7575;SDS011;3829;50.798;4.358;2023-06-14T14:30:40;3.00;;;1.90;;
7575;SDS011;3829;50.798;4.358;2023-06-14T14:33:07;6.57;;;2.00;;
7575;SDS011;3829;50.798;4.358;2023-06-14T14:35:33;5.20;;;1.70;;
7575;SDS011;3829;50.798;4.358;2023-06-14T14:37:59;3.57;;;2.10;;
7575;SDS011;3829;50.798;4.358;2023-06-14T14:40:24;4.43;;;1.87;;
7575;SDS011;3829;50.798;4.358;2023-06-14T14:42:50;2.33;;;1.90;;
7575;SDS011;3829;50.798;4.358;2023-06-14T14:45:16;5.80;;;1.80;;
7575;SDS011;3829;50.798;4.358;2023-06-14T14:47:41;4.30;;;1.70;;
7575;SDS011;3829;50.798;4.358;2023-06-14T14:50:07;2.17;;;1.60;;
7575;SDS011;3829;50.798;4.358;2023-06-14T14:52:34;3.60;;;1.67;;
7575;SDS011;3829;50.798;4.358;2023-06-14T14:55:00;3.10;;;1.40;;
7575;SDS011;3829;50.798;4.358;2023-06-14T14:57:26;6.93;;;2.00;;
7575;SDS011;3829;50.798;4.358;2023-06-14T14:59:52;2.17;;;1.50;;
7575;SDS011;3829;50.798;4.358;2023-06-14T15:02:17;1.70;;;1.43;;
7575;SDS011;3829;50.798;4.358;2023-06-14T15:04:44;1.90;;;1.60;;
7575;SDS011;3829;50.798;4.358;2023-06-14T15:07:10;2.80;;;1.60;;
7575;SDS011;3829;50.798;4.358;2023-06-14T15:09:35;3.33;;;1.60;;
7575;SDS011;3829;50.798;4.358;2023-06-14T15:12:01;3.63;;;1.80;;
7575;SDS011;3829;50.798;4.358;2023-06-14T15:14:27;2.60;;;1.60;;
7575;SDS011;3829;50.798;4.358;2023-06-14T15:16:53;4.40;;;1.90;;
7575;SDS011;3829;50.798;4.358;2023-06-14T15:19:18;2.83;;;1.70;;
7575;SDS011;3829;50.798;4.358;2023-06-14T15:21:44;4.63;;;1.60;;
7575;SDS011;3829;50.798;4.358;2023-06-14T15:24:10;3.33;;;1.67;;
7575;SDS011;3829;50.798;4.358;2023-06-14T15:26:35;3.53;;;1.30;;
7575;SDS011;3829;50.798;4.358;2023-06-14T15:29:01;5.33;;;1.90;;